sensor_id;sensor_type;location;lat;lon;timestamp;P1;durP1;ratioP1;P2;durP2;ratioP2
62633;SDS011;48704;50.534;6.442;2023-03-04T00:00:13;30.52;;;13.38;;
62633;SDS011;48704;50.534;6.442;2023-03-04T00:02:38;26.98;;;12.77;;
62633;SDS011;48704;50.534;6.442;2023-03-04T00:05:04;39.90;;;14.13;;
62633;SDS011;48704;50.534;6.442;2023-03-04T00:07:29;37.58;;;15.10;;
62633;SDS011;48704;50.534;6.442;2023-03-04T00:09:55;35.08;;;14.45;;
62633;SDS011;48704;50.534;6.442;2023-03-04T00:12:20;41.65;;;15.85;;
62633;SDS011;48704;50.534;6.442;2023-03-04T00:14:45;35.80;;;16.40;;
62633;SDS011;48704;50.534;6.442;2023-03-04T00:17:11;40.15;;;16.00;;
62633;SDS011;48704;50.534;6.442;2023-03-04T00:19:36;46.28;;;17.20;;
62633;SDS011;48704;50.534;6.442;2023-03-04T00:22:02;41.88;;;17.73;;
62633;SDS011;48704;50.534;6.442;2023-03-04T00:24:28;41.65;;;17.42;;
62633;SDS011;48704;50.534;6.442;2023-03-04T00:26:53;41.35;;;18.25;;
62633;SDS011;48704;50.534;6.442;2023-03-04T00:29:19;40.80;;;17.80;;
62633;SDS011;48704;50.534;6.442;2023-03-04T00:31:45;47.55;;;20.30;;
62633;SDS011;48704;50.534;6.442;2023-03-04T00:34:11;48.10;;;19.35;;
62633;SDS011;48704;50.534;6.442;2023-03-04T00:36:36;50.85;;;20.02;;
62633;SDS011;48704;50.534;6.442;2023-03-04T00:39:01;56.38;;;21.05;;
62633;SDS011;48704;50.534;6.442;2023-03-04T00:41:27;53.78;;;20.02;;
62633;SDS011;48704;50.534;6.442;2023-03-04T00:43:52;55.47;;;20.83;;
62633;SDS011;48704;50.534;6.442;2023-03-04T00:46:17;51.83;;;21.10;;
62633;SDS011;48704;50.534;6.442;2023-03-04T00:48:43;55.20;;;19.13;;
62633;SDS011;48704;50.534;6.442;2023-03-04T00:51:08;51.35;;;18.92;;
62633;SDS011;48704;50.534;6.442;2023-03-04T00:53:33;47.95;;;19.50;;
62633;SDS011;48704;50.534;6.442;2023-03-04T00:55:58;48.03;;;18.58;;
62633;SDS011;48704;50.534;6.442;2023-03-04T00:58:24;59.45;;;21.90;;
62633;SDS011;48704;50.534;6.442;2023-03-04T01:00:49;41.13;;;20.13;;
62633;SDS011;48704;50.534;6.442;2023-03-04T01:03:14;55.67;;;22.48;;
62633;SDS011;48704;50.534;6.442;2023-03-04T01:05:40;56.75;;;20.58;;
62633;SDS011;48704;50.534;6.442;2023-03-04T01:08:05;55.20;;;19.17;;
62633;SDS011;48704;50.534;6.442;2023-03-04T01:10:31;56.15;;;20.65;;
62633;SDS011;48704;50.534;6.442;2023-03-04T01:12:56;48.88;;;18.45;;
62633;SDS011;48704;50.534;6.442;2023-03-04T01:15:22;50.00;;;19.35;;
62633;SDS011;48704;50.534;6.442;2023-03-04T01:17:48;52.67;;;20.63;;
62633;SDS011;48704;50.534;6.442;2023-03-04T01:20:13;49.20;;;19.50;;
62633;SDS011;48704;50.534;6.442;2023-03-04T01:22:39;52.17;;;20.25;;
62633;SDS011;48704;50.534;6.442;2023-03-04T01:25:04;45.00;;;18.40;;
62633;SDS011;48704;50.534;6.442;2023-03-04T01:27:30;48.35;;;19.58;;
62633;SDS011;48704;50.534;6.442;2023-03-04T01:29:55;56.72;;;20.27;;
62633;SDS011;48704;50.534;6.442;2023-03-04T01:32:20;46.20;;;17.90;;
62633;SDS011;48704;50.534;6.442;2023-03-04T01:34:46;43.25;;;18.88;;
62633;SDS011;48704;50.534;6.442;2023-03-04T01:37:11;37.58;;;17.85;;
62633;SDS011;48704;50.534;6.442;2023-03-04T01:39:39;45.67;;;16.45;;
62633;SDS011;48704;50.534;6.442;2023-03-04T01:42:04;38.55;;;17.35;;
62633;SDS011;48704;50.534;6.442;2023-03-04T01:44:30;38.35;;;17.17;;
62633;SDS011;48704;50.534;6.442;2023-03-04T01:46:56;40.95;;;16.40;;
62633;SDS011;48704;50.534;6.442;2023-03-04T01:49:21;44.90;;;16.60;;
62633;SDS011;48704;50.534;6.442;2023-03-04T01:51:48;33.60;;;16.17;;
62633;SDS011;48704;50.534;6.442;2023-03-04T01:54:16;37.10;;;16.15;;
62633;SDS011;48704;50.534;6.442;2023-03-04T01:56:43;31.75;;;13.93;;
62633;SDS011;48704;50.534;6.442;2023-03-04T01:59:15;38.83;;;15.63;;
62633;SDS011;48704;50.534;6.442;2023-03-04T02:01:45;38.70;;;16.13;;
62633;SDS011;48704;50.534;6.442;2023-03-04T02:04:12;41.05;;;15.48;;
62633;SDS011;48704;50.534;6.442;2023-03-04T02:06:38;37.60;;;16.00;;
62633;SDS011;48704;50.534;6.442;2023-03-04T02:09:05;46.38;;;17.73;;
62633;SDS011;48704;50.534;6.442;2023-03-04T02:11:31;48.10;;;16.58;;
62633;SDS011;48704;50.534;6.442;2023-03-04T02:13:58;37.17;;;15.88;;
62633;SDS011;48704;50.534;6.442;2023-03-04T02:16:24;34.22;;;14.10;;
62633;SDS011;48704;50.534;6.442;2023-03-04T02:18:49;35.58;;;15.27;;
62633;SDS011;48704;50.534;6.442;2023-03-04T02:26:42;31.92;;;13.45;;
62633;SDS011;48704;50.534;6.442;2023-03-04T02:29:11;41.10;;;15.75;;
62633;SDS011;48704;50.534;6.442;2023-03-04T02:31:38;32.10;;;13.75;;
62633;SDS011;48704;50.534;6.442;2023-03-04T02:34:06;37.08;;;14.73;;
62633;SDS011;48704;50.534;6.442;2023-03-04T02:36:36;33.83;;;13.38;;
62633;SDS011;48704;50.534;6.442;2023-03-04T02:39:04;33.72;;;13.90;;
62633;SDS011;48704;50.534;6.442;2023-03-04T02:41:34;32.95;;;13.43;;
62633;SDS011;48704;50.534;6.442;2023-03-04T02:44:00;26.23;;;12.60;;
62633;SDS011;48704;50.534;6.442;2023-03-04T02:46:25;33.42;;;14.63;;
62633;SDS011;48704;50.534;6.442;2023-03-04T02:48:50;28.38;;;12.40;;
62633;SDS011;48704;50.534;6.442;2023-03-04T02:51:16;27.90;;;11.35;;
62633;SDS011;48704;50.534;6.442;2023-03-04T02:53:41;27.10;;;11.45;;
62633;SDS011;48704;50.534;6.442;2023-03-04T02:56:07;29.20;;;11.73;;
62633;SDS011;48704;50.534;6.442;2023-03-04T02:58:32;30.55;;;11.88;;
62633;SDS011;48704;50.534;6.442;2023-03-04T03:00:57;26.08;;;10.13;;
62633;SDS011;48704;50.534;6.442;2023-03-04T03:03:23;33.83;;;10.98;;
62633;SDS011;48704;50.534;6.442;2023-03-04T03:05:49;32.85;;;10.82;;
62633;SDS011;48704;50.534;6.442;2023-03-04T03:08:14;35.08;;;12.30;;
62633;SDS011;48704;50.534;6.442;2023-03-04T03:10:39;36.60;;;12.10;;
62633;SDS011;48704;50.534;6.442;2023-03-04T03:13:05;33.50;;;12.20;;
62633;SDS011;48704;50.534;6.442;2023-03-04T03:15:30;28.00;;;11.18;;
62633;SDS011;48704;50.534;6.442;2023-03-04T03:17:56;31.67;;;12.40;;
62633;SDS011;48704;50.534;6.442;2023-03-04T03:20:21;28.23;;;11.23;;
62633;SDS011;48704;50.534;6.442;2023-03-04T03:22:47;29.27;;;11.88;;
62633;SDS011;48704;50.534;6.442;2023-03-04T03:25:13;28.67;;;10.68;;
62633;SDS011;48704;50.534;6.442;2023-03-04T03:27:40;28.50;;;10.13;;
62633;SDS011;48704;50.534;6.442;2023-03-04T03:30:06;30.52;;;10.50;;
62633;SDS011;48704;50.534;6.442;2023-03-04T03:32:33;28.65;;;10.57;;
62633;SDS011;48704;50.534;6.442;2023-03-04T03:35:00;28.40;;;10.18;;
62633;SDS011;48704;50.534;6.442;2023-03-04T03:37:25;33.03;;;11.68;;
62633;SDS011;48704;50.534;6.442;2023-03-04T03:39:50;30.63;;;11.55;;
62633;SDS011;48704;50.534;6.442;2023-03-04T03:42:15;31.35;;;11.60;;
62633;SDS011;48704;50.534;6.442;2023-03-04T03:44:41;26.30;;;9.93;;
62633;SDS011;48704;50.534;6.442;2023-03-04T03:47:06;27.80;;;9.48;;
62633;SDS011;48704;50.534;6.442;2023-03-04T03:49:31;29.15;;;10.32;;
62633;SDS011;48704;50.534;6.442;2023-03-04T03:51:56;31.83;;;10.98;;
62633;SDS011;48704;50.534;6.442;2023-03-04T03:54:22;26.60;;;8.88;;
62633;SDS011;48704;50.534;6.442;2023-03-04T03:56:47;24.55;;;9.55;;
62633;SDS011;48704;50.534;6.442;2023-03-04T03:59:12;31.85;;;10.27;;
62633;SDS011;48704;50.534;6.442;2023-03-04T04:01:38;29.05;;;9.65;;
62633;SDS011;48704;50.534;6.442;2023-03-04T04:04:03;28.88;;;9.27;;
62633;SDS011;48704;50.534;6.442;2023-03-04T04:06:28;25.75;;;8.63;;
62633;SDS011;48704;50.534;6.442;2023-03-04T04:08:54;26.20;;;7.78;;
62633;SDS011;48704;50.534;6.442;2023-03-04T04:11:19;22.08;;;7.88;;
62633;SDS011;48704;50.534;6.442;2023-03-04T04:13:44;29.20;;;8.75;;
62633;SDS011;48704;50.534;6.442;2023-03-04T04:16:09;26.95;;;8.95;;
62633;SDS011;48704;50.534;6.442;2023-03-04T04:18:35;26.73;;;9.23;;
62633;SDS011;48704;50.534;6.442;2023-03-04T04:21:01;33.08;;;9.45;;
62633;SDS011;48704;50.534;6.442;2023-03-04T04:23:27;24.05;;;8.48;;
62633;SDS011;48704;50.534;6.442;2023-03-04T04:25:56;27.85;;;9.55;;
62633;SDS011;48704;50.534;6.442;2023-03-04T04:28:22;28.98;;;10.00;;
62633;SDS011;48704;50.534;6.442;2023-03-04T04:30:48;25.35;;;8.45;;
62633;SDS011;48704;50.534;6.442;2023-03-04T04:33:14;26.60;;;8.85;;
62633;SDS011;48704;50.534;6.442;2023-03-04T04:35:40;23.67;;;8.23;;
62633;SDS011;48704;50.534;6.442;2023-03-04T04:38:06;23.77;;;7.90;;
62633;SDS011;48704;50.534;6.442;2023-03-04T04:40:32;26.33;;;8.18;;
62633;SDS011;48704;50.534;6.442;2023-03-04T04:42:57;25.23;;;9.25;;
62633;SDS011;48704;50.534;6.442;2023-03-04T04:45:23;21.17;;;7.95;;
62633;SDS011;48704;50.534;6.442;2023-03-04T04:47:49;24.08;;;8.52;;
62633;SDS011;48704;50.534;6.442;2023-03-04T04:50:15;25.45;;;7.03;;
62633;SDS011;48704;50.534;6.442;2023-03-04T04:52:40;23.77;;;8.07;;
62633;SDS011;48704;50.534;6.442;2023-03-04T04:55:05;23.00;;;7.68;;
62633;SDS011;48704;50.534;6.442;2023-03-04T04:57:32;24.58;;;7.97;;
62633;SDS011;48704;50.534;6.442;2023-03-04T04:59:57;34.80;;;9.43;;
62633;SDS011;48704;50.534;6.442;2023-03-04T05:02:23;24.38;;;7.50;;
62633;SDS011;48704;50.534;6.442;2023-03-04T05:04:48;22.23;;;8.02;;
62633;SDS011;48704;50.534;6.442;2023-03-04T05:07:13;27.70;;;8.90;;
62633;SDS011;48704;50.534;6.442;2023-03-04T05:09:39;23.23;;;8.18;;
62633;SDS011;48704;50.534;6.442;2023-03-04T05:12:04;34.58;;;9.50;;
62633;SDS011;48704;50.534;6.442;2023-03-04T05:14:29;21.98;;;8.35;;
62633;SDS011;48704;50.534;6.442;2023-03-04T05:16:54;22.23;;;7.95;;
62633;SDS011;48704;50.534;6.442;2023-03-04T05:19:20;24.65;;;7.63;;
62633;SDS011;48704;50.534;6.442;2023-03-04T05:21:45;26.30;;;8.38;;
62633;SDS011;48704;50.534;6.442;2023-03-04T05:24:11;28.17;;;8.05;;
62633;SDS011;48704;50.534;6.442;2023-03-04T05:26:36;30.27;;;8.52;;
62633;SDS011;48704;50.534;6.442;2023-03-04T05:29:02;29.55;;;9.90;;
62633;SDS011;48704;50.534;6.442;2023-03-04T05:31:28;24.92;;;8.05;;
62633;SDS011;48704;50.534;6.442;2023-03-04T05:33:53;28.25;;;9.75;;
62633;SDS011;48704;50.534;6.442;2023-03-04T05:36:19;25.83;;;8.32;;
62633;SDS011;48704;50.534;6.442;2023-03-04T05:38:44;23.33;;;7.55;;
62633;SDS011;48704;50.534;6.442;2023-03-04T05:41:10;20.27;;;8.38;;
62633;SDS011;48704;50.534;6.442;2023-03-04T05:43:35;27.83;;;8.25;;
62633;SDS011;48704;50.534;6.442;2023-03-04T05:46:02;25.70;;;8.70;;
62633;SDS011;48704;50.534;6.442;2023-03-04T05:48:28;27.80;;;7.57;;
62633;SDS011;48704;50.534;6.442;2023-03-04T05:50:57;30.48;;;8.93;;
62633;SDS011;48704;50.534;6.442;2023-03-04T05:53:24;28.90;;;8.35;;
62633;SDS011;48704;50.534;6.442;2023-03-04T05:55:50;21.33;;;7.60;;
62633;SDS011;48704;50.534;6.442;2023-03-04T05:58:16;23.67;;;7.55;;
62633;SDS011;48704;50.534;6.442;2023-03-04T06:00:42;23.25;;;9.15;;
62633;SDS011;48704;50.534;6.442;2023-03-04T06:03:15;21.00;;;7.75;;
62633;SDS011;48704;50.534;6.442;2023-03-04T06:05:42;24.75;;;7.70;;
62633;SDS011;48704;50.534;6.442;2023-03-04T06:08:07;33.25;;;8.88;;
62633;SDS011;48704;50.534;6.442;2023-03-04T06:10:33;27.83;;;8.23;;
62633;SDS011;48704;50.534;6.442;2023-03-04T06:12:58;28.25;;;10.07;;
62633;SDS011;48704;50.534;6.442;2023-03-04T06:15:24;24.88;;;8.30;;
62633;SDS011;48704;50.534;6.442;2023-03-04T06:17:49;26.70;;;8.45;;
62633;SDS011;48704;50.534;6.442;2023-03-04T06:20:14;23.13;;;8.30;;
62633;SDS011;48704;50.534;6.442;2023-03-04T06:22:39;29.65;;;8.98;;
62633;SDS011;48704;50.534;6.442;2023-03-04T06:25:05;37.22;;;10.00;;
62633;SDS011;48704;50.534;6.442;2023-03-04T06:27:31;32.75;;;8.70;;
62633;SDS011;48704;50.534;6.442;2023-03-04T06:29:56;27.25;;;8.23;;
62633;SDS011;48704;50.534;6.442;2023-03-04T06:32:22;25.67;;;8.80;;
62633;SDS011;48704;50.534;6.442;2023-03-04T06:34:47;26.75;;;8.20;;
62633;SDS011;48704;50.534;6.442;2023-03-04T06:37:13;29.23;;;8.75;;
62633;SDS011;48704;50.534;6.442;2023-03-04T06:39:38;27.15;;;8.55;;
62633;SDS011;48704;50.534;6.442;2023-03-04T06:42:03;24.35;;;9.20;;
62633;SDS011;48704;50.534;6.442;2023-03-04T06:44:29;29.33;;;9.02;;
62633;SDS011;48704;50.534;6.442;2023-03-04T06:46:54;24.27;;;8.95;;
62633;SDS011;48704;50.534;6.442;2023-03-04T06:49:19;27.17;;;8.93;;
62633;SDS011;48704;50.534;6.442;2023-03-04T06:51:45;28.98;;;8.77;;
62633;SDS011;48704;50.534;6.442;2023-03-04T06:54:10;28.65;;;9.10;;
62633;SDS011;48704;50.534;6.442;2023-03-04T06:56:35;31.33;;;8.75;;
62633;SDS011;48704;50.534;6.442;2023-03-04T06:59:00;27.23;;;8.60;;
62633;SDS011;48704;50.534;6.442;2023-03-04T07:01:26;24.80;;;8.32;;
62633;SDS011;48704;50.534;6.442;2023-03-04T07:03:53;33.22;;;7.82;;
62633;SDS011;48704;50.534;6.442;2023-03-04T07:06:21;28.63;;;7.90;;
62633;SDS011;48704;50.534;6.442;2023-03-04T07:08:48;32.00;;;9.95;;
62633;SDS011;48704;50.534;6.442;2023-03-04T07:11:14;36.33;;;9.05;;
62633;SDS011;48704;50.534;6.442;2023-03-04T07:13:40;30.85;;;8.90;;
62633;SDS011;48704;50.534;6.442;2023-03-04T07:16:06;30.92;;;8.52;;
62633;SDS011;48704;50.534;6.442;2023-03-04T07:18:32;28.58;;;7.63;;
62633;SDS011;48704;50.534;6.442;2023-03-04T07:20:58;22.90;;;7.25;;
62633;SDS011;48704;50.534;6.442;2023-03-04T07:23:23;21.63;;;7.13;;
62633;SDS011;48704;50.534;6.442;2023-03-04T07:25:49;23.80;;;7.90;;
62633;SDS011;48704;50.534;6.442;2023-03-04T07:28:14;22.08;;;7.40;;
62633;SDS011;48704;50.534;6.442;2023-03-04T07:30:40;25.05;;;7.07;;
62633;SDS011;48704;50.534;6.442;2023-03-04T07:33:05;21.98;;;7.88;;
62633;SDS011;48704;50.534;6.442;2023-03-04T07:35:30;21.65;;;6.57;;
62633;SDS011;48704;50.534;6.442;2023-03-04T07:37:56;18.55;;;5.90;;
62633;SDS011;48704;50.534;6.442;2023-03-04T07:40:21;21.25;;;6.95;;
62633;SDS011;48704;50.534;6.442;2023-03-04T07:42:50;26.35;;;7.00;;
62633;SDS011;48704;50.534;6.442;2023-03-04T07:45:16;20.83;;;6.10;;
62633;SDS011;48704;50.534;6.442;2023-03-04T07:47:41;20.15;;;6.30;;
62633;SDS011;48704;50.534;6.442;2023-03-04T07:50:07;30.70;;;8.25;;
62633;SDS011;48704;50.534;6.442;2023-03-04T07:52:38;25.27;;;7.07;;
62633;SDS011;48704;50.534;6.442;2023-03-04T07:55:08;23.20;;;6.07;;
62633;SDS011;48704;50.534;6.442;2023-03-04T07:57:34;21.27;;;5.82;;
62633;SDS011;48704;50.534;6.442;2023-03-04T07:59:59;20.10;;;6.78;;
62633;SDS011;48704;50.534;6.442;2023-03-04T08:02:25;22.08;;;6.63;;
62633;SDS011;48704;50.534;6.442;2023-03-04T08:04:50;16.45;;;5.05;;
62633;SDS011;48704;50.534;6.442;2023-03-04T08:07:16;18.92;;;6.70;;
62633;SDS011;48704;50.534;6.442;2023-03-04T08:09:41;12.40;;;5.05;;
62633;SDS011;48704;50.534;6.442;2023-03-04T08:12:06;23.80;;;6.05;;
62633;SDS011;48704;50.534;6.442;2023-03-04T08:14:32;19.23;;;5.80;;
62633;SDS011;48704;50.534;6.442;2023-03-04T08:16:58;20.55;;;5.78;;
62633;SDS011;48704;50.534;6.442;2023-03-04T08:19:23;22.52;;;6.70;;
62633;SDS011;48704;50.534;6.442;2023-03-04T08:21:49;19.45;;;5.53;;
62633;SDS011;48704;50.534;6.442;2023-03-04T08:24:14;22.42;;;6.20;;
62633;SDS011;48704;50.534;6.442;2023-03-04T08:26:40;13.05;;;5.40;;
62633;SDS011;48704;50.534;6.442;2023-03-04T08:29:13;14.20;;;4.82;;
62633;SDS011;48704;50.534;6.442;2023-03-04T08:31:40;19.83;;;6.80;;
62633;SDS011;48704;50.534;6.442;2023-03-04T08:34:06;21.73;;;6.55;;
62633;SDS011;48704;50.534;6.442;2023-03-04T08:36:34;17.70;;;4.93;;
62633;SDS011;48704;50.534;6.442;2023-03-04T08:39:01;30.38;;;6.75;;
62633;SDS011;48704;50.534;6.442;2023-03-04T08:41:27;16.45;;;5.80;;
62633;SDS011;48704;50.534;6.442;2023-03-04T08:43:53;23.67;;;6.38;;
62633;SDS011;48704;50.534;6.442;2023-03-04T08:46:18;14.40;;;5.25;;
62633;SDS011;48704;50.534;6.442;2023-03-04T08:48:43;17.27;;;5.10;;
62633;SDS011;48704;50.534;6.442;2023-03-04T08:51:09;19.48;;;4.93;;
62633;SDS011;48704;50.534;6.442;2023-03-04T08:53:38;18.88;;;5.38;;
62633;SDS011;48704;50.534;6.442;2023-03-04T08:56:05;28.92;;;5.70;;
62633;SDS011;48704;50.534;6.442;2023-03-04T08:58:31;17.42;;;4.57;;
62633;SDS011;48704;50.534;6.442;2023-03-04T09:00:57;15.02;;;4.38;;
62633;SDS011;48704;50.534;6.442;2023-03-04T09:03:24;17.95;;;4.72;;
62633;SDS011;48704;50.534;6.442;2023-03-04T09:05:50;16.00;;;5.38;;
62633;SDS011;48704;50.534;6.442;2023-03-04T09:08:15;19.88;;;4.57;;
62633;SDS011;48704;50.534;6.442;2023-03-04T09:10:41;13.80;;;4.25;;
62633;SDS011;48704;50.534;6.442;2023-03-04T09:13:07;14.27;;;4.28;;
62633;SDS011;48704;50.534;6.442;2023-03-04T09:15:35;12.25;;;4.10;;
62633;SDS011;48704;50.534;6.442;2023-03-04T09:18:02;13.82;;;4.40;;
62633;SDS011;48704;50.534;6.442;2023-03-04T09:20:28;19.80;;;5.45;;
62633;SDS011;48704;50.534;6.442;2023-03-04T09:22:54;14.18;;;4.13;;
62633;SDS011;48704;50.534;6.442;2023-03-04T09:25:19;13.38;;;4.45;;
62633;SDS011;48704;50.534;6.442;2023-03-04T09:27:45;9.82;;;4.47;;
62633;SDS011;48704;50.534;6.442;2023-03-04T09:30:11;11.70;;;4.15;;
62633;SDS011;48704;50.534;6.442;2023-03-04T09:32:36;13.23;;;4.57;;
62633;SDS011;48704;50.534;6.442;2023-03-04T09:35:02;11.73;;;3.83;;
62633;SDS011;48704;50.534;6.442;2023-03-04T09:37:28;26.65;;;4.22;;
62633;SDS011;48704;50.534;6.442;2023-03-04T09:39:53;17.30;;;4.38;;
62633;SDS011;48704;50.534;6.442;2023-03-04T09:42:26;13.02;;;3.88;;
62633;SDS011;48704;50.534;6.442;2023-03-04T09:44:57;10.60;;;3.83;;
62633;SDS011;48704;50.534;6.442;2023-03-04T09:47:23;13.13;;;5.20;;
62633;SDS011;48704;50.534;6.442;2023-03-04T09:49:57;16.13;;;4.40;;
62633;SDS011;48704;50.534;6.442;2023-03-04T10:00:44;19.70;;;5.80;;
62633;SDS011;48704;50.534;6.442;2023-03-04T10:03:22;14.90;;;5.20;;
62633;SDS011;48704;50.534;6.442;2023-03-04T10:05:55;15.57;;;4.35;;
62633;SDS011;48704;50.534;6.442;2023-03-04T10:11:14;19.60;;;4.97;;
62633;SDS011;48704;50.534;6.442;2023-03-04T10:16:45;13.75;;;5.68;;
62633;SDS011;48704;50.534;6.442;2023-03-04T10:21:52;17.10;;;5.57;;
62633;SDS011;48704;50.534;6.442;2023-03-04T10:24:18;19.10;;;5.78;;
62633;SDS011;48704;50.534;6.442;2023-03-04T10:27:09;11.25;;;5.32;;
62633;SDS011;48704;50.534;6.442;2023-03-04T10:29:36;16.00;;;4.95;;
62633;SDS011;48704;50.534;6.442;2023-03-04T10:32:01;17.98;;;5.90;;
62633;SDS011;48704;50.534;6.442;2023-03-04T10:34:26;14.95;;;6.18;;
62633;SDS011;48704;50.534;6.442;2023-03-04T10:36:59;10.20;;;4.45;;
62633;SDS011;48704;50.534;6.442;2023-03-04T10:41:56;10.65;;;3.90;;
62633;SDS011;48704;50.534;6.442;2023-03-04T10:44:56;12.98;;;4.78;;
62633;SDS011;48704;50.534;6.442;2023-03-04T10:47:24;11.93;;;4.22;;
62633;SDS011;48704;50.534;6.442;2023-03-04T10:49:58;19.80;;;5.25;;
62633;SDS011;48704;50.534;6.442;2023-03-04T10:55:02;14.75;;;4.38;;
62633;SDS011;48704;50.534;6.442;2023-03-04T10:57:36;12.77;;;3.90;;
62633;SDS011;48704;50.534;6.442;2023-03-04T11:02:47;10.15;;;3.65;;
62633;SDS011;48704;50.534;6.442;2023-03-04T11:07:40;9.43;;;3.20;;
62633;SDS011;48704;50.534;6.442;2023-03-04T11:10:13;7.30;;;3.13;;
62633;SDS011;48704;50.534;6.442;2023-03-04T11:12:46;4.13;;;1.85;;
62633;SDS011;48704;50.534;6.442;2023-03-04T11:15:43;5.93;;;2.38;;
62633;SDS011;48704;50.534;6.442;2023-03-04T11:18:14;5.57;;;2.60;;
62633;SDS011;48704;50.534;6.442;2023-03-04T11:20:42;15.95;;;3.03;;
62633;SDS011;48704;50.534;6.442;2023-03-04T11:23:17;5.93;;;2.63;;
62633;SDS011;48704;50.534;6.442;2023-03-04T11:26:13;5.40;;;2.00;;
62633;SDS011;48704;50.534;6.442;2023-03-04T11:28:48;6.32;;;2.40;;
62633;SDS011;48704;50.534;6.442;2023-03-04T11:31:35;8.82;;;2.50;;
62633;SDS011;48704;50.534;6.442;2023-03-04T11:34:11;8.95;;;1.98;;
62633;SDS011;48704;50.534;6.442;2023-03-04T11:39:38;6.15;;;2.33;;
62633;SDS011;48704;50.534;6.442;2023-03-04T11:44:35;11.60;;;3.72;;
62633;SDS011;48704;50.534;6.442;2023-03-04T11:47:03;18.77;;;5.50;;
62633;SDS011;48704;50.534;6.442;2023-03-04T11:52:30;6.13;;;1.80;;
62633;SDS011;48704;50.534;6.442;2023-03-04T11:58:00;8.52;;;3.38;;
62633;SDS011;48704;50.534;6.442;2023-03-04T12:06:14;10.38;;;3.50;;
62633;SDS011;48704;50.534;6.442;2023-03-04T12:14:45;4.43;;;2.05;;
62633;SDS011;48704;50.534;6.442;2023-03-04T12:20:03;8.48;;;2.20;;
62633;SDS011;48704;50.534;6.442;2023-03-04T12:22:45;5.75;;;2.13;;
62633;SDS011;48704;50.534;6.442;2023-03-04T12:28:21;8.98;;;2.78;;
62633;SDS011;48704;50.534;6.442;2023-03-04T12:30:58;6.32;;;3.13;;
62633;SDS011;48704;50.534;6.442;2023-03-04T12:38:41;4.65;;;2.20;;
62633;SDS011;48704;50.534;6.442;2023-03-04T12:44:14;6.78;;;2.35;;
62633;SDS011;48704;50.534;6.442;2023-03-04T12:55:11;4.55;;;1.77;;
62633;SDS011;48704;50.534;6.442;2023-03-04T12:57:41;6.03;;;2.70;;
62633;SDS011;48704;50.534;6.442;2023-03-04T13:00:08;4.82;;;2.78;;
62633;SDS011;48704;50.534;6.442;2023-03-04T13:02:45;8.23;;;2.72;;
62633;SDS011;48704;50.534;6.442;2023-03-04T13:10:31;7.25;;;2.33;;
62633;SDS011;48704;50.534;6.442;2023-03-04T13:12:57;4.68;;;1.77;;
62633;SDS011;48704;50.534;6.442;2023-03-04T13:17:50;4.40;;;2.20;;
62633;SDS011;48704;50.534;6.442;2023-03-04T13:22:52;5.47;;;2.20;;
62633;SDS011;48704;50.534;6.442;2023-03-04T13:25:27;13.40;;;7.63;;
62633;SDS011;48704;50.534;6.442;2023-03-04T13:30:42;6.00;;;1.90;;
62633;SDS011;48704;50.534;6.442;2023-03-04T13:43:42;4.40;;;1.90;;
62633;SDS011;48704;50.534;6.442;2023-03-04T14:02:15;8.82;;;2.20;;
62633;SDS011;48704;50.534;6.442;2023-03-04T14:04:45;4.80;;;1.90;;
62633;SDS011;48704;50.534;6.442;2023-03-04T14:07:27;6.78;;;1.92;;
62633;SDS011;48704;50.534;6.442;2023-03-04T14:12:49;4.82;;;2.10;;
62633;SDS011;48704;50.534;6.442;2023-03-04T14:15:24;7.35;;;2.42;;
62633;SDS011;48704;50.534;6.442;2023-03-04T14:17:56;7.53;;;2.10;;
62633;SDS011;48704;50.534;6.442;2023-03-04T14:23:26;6.72;;;2.88;;
62633;SDS011;48704;50.534;6.442;2023-03-04T14:26:03;8.90;;;2.60;;
62633;SDS011;48704;50.534;6.442;2023-03-04T14:28:29;6.18;;;2.28;;
62633;SDS011;48704;50.534;6.442;2023-03-04T14:30:55;6.90;;;3.00;;
62633;SDS011;48704;50.534;6.442;2023-03-04T14:33:25;7.80;;;2.50;;
62633;SDS011;48704;50.534;6.442;2023-03-04T14:35:54;4.05;;;1.98;;
62633;SDS011;48704;50.534;6.442;2023-03-04T14:38:26;5.63;;;3.08;;
62633;SDS011;48704;50.534;6.442;2023-03-04T14:43:21;8.80;;;3.15;;
62633;SDS011;48704;50.534;6.442;2023-03-04T14:45:48;8.15;;;2.65;;
62633;SDS011;48704;50.534;6.442;2023-03-04T14:48:20;5.50;;;2.30;;
62633;SDS011;48704;50.534;6.442;2023-03-04T14:50:49;6.97;;;2.95;;
62633;SDS011;48704;50.534;6.442;2023-03-04T14:53:17;6.90;;;3.00;;
62633;SDS011;48704;50.534;6.442;2023-03-04T14:56:00;6.85;;;2.88;;
62633;SDS011;48704;50.534;6.442;2023-03-04T14:58:29;6.18;;;2.25;;
62633;SDS011;48704;50.534;6.442;2023-03-04T15:01:06;5.65;;;2.10;;
62633;SDS011;48704;50.534;6.442;2023-03-04T15:03:38;3.90;;;2.40;;
62633;SDS011;48704;50.534;6.442;2023-03-04T15:06:26;5.93;;;2.20;;
62633;SDS011;48704;50.534;6.442;2023-03-04T15:08:55;8.23;;;2.20;;
62633;SDS011;48704;50.534;6.442;2023-03-04T15:11:30;4.53;;;1.88;;
62633;SDS011;48704;50.534;6.442;2023-03-04T15:14:15;3.53;;;1.90;;
62633;SDS011;48704;50.534;6.442;2023-03-04T15:17:27;4.65;;;2.15;;
62633;SDS011;48704;50.534;6.442;2023-03-04T15:22:31;4.05;;;1.70;;
62633;SDS011;48704;50.534;6.442;2023-03-04T15:24:57;3.47;;;1.60;;
62633;SDS011;48704;50.534;6.442;2023-03-04T15:27:23;5.03;;;2.08;;
62633;SDS011;48704;50.534;6.442;2023-03-04T15:29:50;5.38;;;1.75;;
62633;SDS011;48704;50.534;6.442;2023-03-04T15:32:22;2.75;;;1.58;;
62633;SDS011;48704;50.534;6.442;2023-03-04T15:34:50;3.08;;;1.80;;
62633;SDS011;48704;50.534;6.442;2023-03-04T15:37:26;5.47;;;2.20;;
62633;SDS011;48704;50.534;6.442;2023-03-04T15:39:56;4.22;;;2.10;;
62633;SDS011;48704;50.534;6.442;2023-03-04T15:42:22;5.70;;;2.15;;
62633;SDS011;48704;50.534;6.442;2023-03-04T15:44:47;8.55;;;2.47;;
62633;SDS011;48704;50.534;6.442;2023-03-04T15:47:13;4.10;;;2.15;;
62633;SDS011;48704;50.534;6.442;2023-03-04T15:49:39;6.57;;;2.00;;
62633;SDS011;48704;50.534;6.442;2023-03-04T15:52:20;6.20;;;2.25;;
62633;SDS011;48704;50.534;6.442;2023-03-04T15:54:46;4.88;;;2.10;;
62633;SDS011;48704;50.534;6.442;2023-03-04T15:57:19;4.15;;;1.77;;
62633;SDS011;48704;50.534;6.442;2023-03-04T15:59:45;5.28;;;2.38;;
62633;SDS011;48704;50.534;6.442;2023-03-04T16:02:16;7.88;;;2.63;;
62633;SDS011;48704;50.534;6.442;2023-03-04T16:04:44;4.78;;;2.40;;
62633;SDS011;48704;50.534;6.442;2023-03-04T16:07:12;6.47;;;2.67;;
62633;SDS011;48704;50.534;6.442;2023-03-04T16:09:42;8.10;;;3.10;;
62633;SDS011;48704;50.534;6.442;2023-03-04T16:12:09;8.15;;;2.72;;
62633;SDS011;48704;50.534;6.442;2023-03-04T16:14:36;9.23;;;2.85;;
62633;SDS011;48704;50.534;6.442;2023-03-04T16:17:01;6.55;;;2.58;;
62633;SDS011;48704;50.534;6.442;2023-03-04T16:19:26;6.95;;;2.47;;
62633;SDS011;48704;50.534;6.442;2023-03-04T16:21:52;6.93;;;3.00;;
62633;SDS011;48704;50.534;6.442;2023-03-04T16:24:17;7.18;;;2.75;;
62633;SDS011;48704;50.534;6.442;2023-03-04T16:26:43;6.65;;;3.25;;
62633;SDS011;48704;50.534;6.442;2023-03-04T16:29:09;5.07;;;2.72;;
62633;SDS011;48704;50.534;6.442;2023-03-04T16:31:35;5.47;;;2.78;;
62633;SDS011;48704;50.534;6.442;2023-03-04T16:34:00;5.75;;;3.15;;
62633;SDS011;48704;50.534;6.442;2023-03-04T16:36:26;8.85;;;3.40;;
62633;SDS011;48704;50.534;6.442;2023-03-04T16:38:56;6.38;;;3.08;;
62633;SDS011;48704;50.534;6.442;2023-03-04T16:41:26;11.60;;;4.32;;
62633;SDS011;48704;50.534;6.442;2023-03-04T16:43:54;9.10;;;4.47;;